Time;durP1;ratioP1;P1;durP2;ratioP2;P2;SDS_P1;SDS_P2;PMS_P1;PMS_P2;Temp;Humidity;BMP_temperature;BMP_pressure;BME280_temperature;BME280_humidity;BME280_pressure;Samples;Min_cycle;Max_cycle;Signal;HPM_P1;HPM_P2
2022/03/25 00:00:12;;;;;;;7.30;6.60;;;;;;;2.78;84.23;100389.77;1690152;83;21073;-70
2022/03/25 00:02:42;;;;;;;7.50;6.80;;;;;;;2.80;84.10;100392.59;1675150;83;21066;-71
2022/03/25 00:05:09;;;;;;;;;;;;;;;2.76;83.89;100394.34;1694027;83;21077;-72
2022/03/25 00:07:37;;;;;;;7.50;6.67;;;;;;;2.78;83.81;100398.98;1659588;85;20168;-69
2022/03/25 00:10:07;;;;;;;6.70;6.00;;;;;;;2.82;83.82;100397.24;1659526;85;21352;-69
2022/03/25 00:12:36;;;;;;;7.00;6.37;;;;;;;2.92;83.79;100397.28;1685511;83;21070;-70
2022/03/25 00:15:03;;;;;;;6.73;6.03;;;;;;;2.95;83.59;100400.94;1690031;83;21085;-70
2022/03/25 00:17:30;;;;;;;8.07;7.10;;;;;;;2.91;83.70;100396.42;1691301;83;21093;-70
2022/03/25 00:19:57;;;;;;;8.60;7.80;;;;;;;2.85;83.47;100404.05;1693770;83;21048;-71
2022/03/25 00:22:25;;;;;;;7.27;6.30;;;;;;;2.79;83.61;100401.48;1695511;83;21135;-71
2022/03/25 00:24:51;;;;;;;;;;;;;;;2.80;84.09;100404.94;1701884;83;21002;-71
2022/03/25 00:27:18;;;;;;;8.57;7.57;;;;;;;2.85;84.08;100406.20;1685104;83;20152;-70
2022/03/25 00:29:45;;;;;;;10.43;9.03;;;;;;;2.84;83.88;100411.09;1686667;83;21085;-70
2022/03/25 00:32:13;;;;;;;10.03;9.03;;;;;;;2.58;84.00;100366.06;1701950;83;21495;-70
2022/03/25 00:34:40;;;;;;;8.63;7.77;;;;;;;2.95;84.00;100413.28;1694523;83;21063;-69
2022/03/25 00:37:08;;;;;;;8.30;7.47;;;;;;;2.98;83.73;100406.43;1684483;83;21034;-69
2022/03/25 00:39:35;;;;;;;8.27;7.47;;;;;;;2.94;83.64;100404.55;1694325;83;21152;-70
2022/03/25 00:42:03;;;;;;;9.43;8.53;;;;;;;2.91;83.82;100408.27;1694054;83;21115;-70
2022/03/25 00:44:31;;;;;;;9.77;8.63;;;;;;;2.88;83.76;100412.52;1702336;83;21034;-70
2022/03/25 00:47:00;;;;;;;9.43;8.50;;;;;;;2.88;83.67;100415.15;1695314;84;21078;-70
2022/03/25 00:49:29;;;;;;;10.47;9.37;;;;;;;2.92;83.46;100424.44;1698644;84;21388;-69
2022/03/25 00:51:58;;;;;;;9.90;8.50;;;;;;;2.95;83.31;100431.71;1695151;84;21377;-70
2022/03/25 00:54:27;;;;;;;8.87;7.97;;;;;;;2.91;83.30;100428.52;1694018;83;21119;-69
2022/03/25 00:56:55;;;;;;;11.83;10.03;;;;;;;2.86;83.70;100428.94;1692425;83;21619;-72
2022/03/25 00:59:22;;;;;;;10.87;9.23;;;;;;;2.77;84.04;100436.33;1696237;83;21697;-70
2022/03/25 01:01:49;;;;;;;12.03;9.97;;;;;;;2.66;84.26;100436.44;1697984;83;20972;-70
2022/03/25 01:04:16;;;;;;;10.17;9.13;;;;;;;2.60;84.54;100439.12;1697425;83;21073;-71
2022/03/25 01:06:46;;;;;;;15.87;11.90;;;;;;;2.64;84.79;100441.01;1693046;83;21605;-70
2022/03/25 01:09:13;;;;;;;20.57;14.43;;;;;;;2.70;84.87;100443.09;1694689;83;21042;-70
2022/03/25 01:11:42;;;;;;;18.53;14.80;;;;;;;2.78;85.08;100443.23;1698502;83;21109;-69
2022/03/25 01:14:09;;;;;;;17.80;14.47;;;;;;;2.85;85.16;100440.42;1681634;83;21122;-70
2022/03/25 01:16:36;;;;;;;16.53;13.57;;;;;;;2.87;85.14;100441.61;1715717;83;21664;-70
2022/03/25 01:19:04;;;;;;;19.50;14.37;;;;;;;2.89;85.05;100453.66;1716132;83;21136;-70
2022/03/25 01:21:31;;;;;;;24.33;16.27;;;;;;;2.87;84.84;100451.64;1706606;83;21059;-70
2022/03/25 01:23:59;;;;;;;20.93;14.97;;;;;;;2.90;84.74;100454.48;1709774;83;21597;-71
2022/03/25 01:26:27;;;;;;;22.27;15.97;;;;;;;3.01;84.70;100457.48;1702572;83;21146;-70
2022/03/25 01:28:54;;;;;;;29.33;19.13;;;;;;;3.08;84.39;100460.75;1718613;83;21343;-70
2022/03/25 01:31:21;;;;;;;24.50;19.00;;;;;;;3.15;84.18;100466.81;1703926;83;21130;-70
2022/03/25 01:33:49;;;;;;;25.90;19.00;;;;;;;3.20;84.17;100472.48;1683339;85;21037;-70
2022/03/25 01:36:19;;;;;;;24.67;17.73;;;;;;;3.20;84.09;100473.34;1653194;85;21631;-70
2022/03/25 01:38:46;;;;;;;27.50;21.13;;;;;;;3.19;83.92;100471.66;1708289;83;21075;-70
2022/03/25 01:41:16;;;;;;;28.20;21.47;;;;;;;3.18;83.81;100477.05;1711461;83;21014;-70
2022/03/25 01:43:54;;;;;;;26.50;19.50;;;;;;;3.19;83.54;100487.46;1701804;83;21083;-71
2022/03/25 01:46:21;;;;;;;31.42;22.15;;;;;;;3.24;83.28;100490.52;1645031;85;21058;-69
2022/03/25 01:48:50;;;;;;;26.50;21.53;;;;;;;3.24;83.11;100500.20;1682314;83;21092;-69
2022/03/25 01:51:28;;;;;;;27.50;21.73;;;;;;;3.24;83.05;100511.60;1677604;83;21014;-70
2022/03/25 01:54:03;;;;;;;31.67;23.03;;;;;;;3.24;83.18;100516.88;1687766;83;21093;-70
2022/03/25 01:56:29;;;;;;;29.27;22.80;;;;;;;3.19;83.53;100521.70;1640277;85;21535;-70
2022/03/25 01:58:56;;;;;;;26.33;22.83;;;;;;;3.16;83.67;100525.91;1659079;84;21594;-70
2022/03/25 02:01:25;;;;;;;;;;;;;;;3.15;83.72;100533.98;1666668;84;21136;-71
2022/03/25 02:03:53;;;;;;;32.90;25.27;;;;;;;3.19;83.71;100534.05;1586206;86;20495;-70
2022/03/25 02:06:21;;;;;;;37.77;24.70;;;;;;;3.18;84.02;100533.69;1657544;84;21333;-70
2022/03/25 02:08:49;;;;;;;31.47;23.47;;;;;;;3.20;84.13;100532.61;1665791;84;21188;-71
2022/03/25 02:11:19;;;;;;;28.37;21.90;;;;;;;3.28;84.20;100543.78;1639428;83;21110;-70
2022/03/25 02:13:47;;;;;;;30.63;23.57;;;;;;;3.33;84.20;100545.99;1666355;84;21582;-70
2022/03/25 02:16:15;;;;;;;34.23;26.23;;;;;;;3.34;84.30;100545.03;1664049;84;21069;-70
2022/03/25 02:18:42;;;;;;;35.85;26.20;;;;;;;3.30;84.36;100547.93;1661081;84;21105;-71
2022/03/25 02:21:12;;;;;;;36.73;29.53;;;;;;;3.28;84.48;100549.88;1670379;83;21057;-69
2022/03/25 02:23:39;;;;;;;30.97;26.27;;;;;;;3.31;84.55;100553.56;1662724;84;21137;-70
2022/03/25 02:26:08;;;;;;;36.20;28.47;;;;;;;3.36;84.72;100552.31;1666041;84;21070;-70
2022/03/25 02:28:36;;;;;;;34.43;28.77;;;;;;;3.36;84.85;100554.95;1665774;85;21614;-69
2022/03/25 02:31:05;;;;;;;34.50;28.17;;;;;;;3.39;84.96;100569.16;1666868;85;21158;-69
2022/03/25 02:33:32;;;;;;;38.10;30.13;;;;;;;3.40;85.11;100567.70;1664963;84;21149;-69
2022/03/25 02:36:01;;;;;;;33.57;28.07;;;;;;;3.38;85.27;100564.87;1670584;84;21502;-70
2022/03/25 02:38:28;;;;;;;36.37;28.40;;;;;;;3.37;85.31;100568.00;1672623;84;21609;-69
2022/03/25 02:40:56;;;;;;;37.30;27.47;;;;;;;3.39;85.22;100573.10;1662352;84;21093;-70
2022/03/25 02:43:25;;;;;;;32.93;27.77;;;;;;;3.45;84.91;100581.31;1661412;84;21098;-71
2022/03/25 02:46:04;;;;;;;33.47;26.77;;;;;;;3.50;84.48;100584.38;1657455;84;21109;-70
2022/03/25 02:48:32;;;;;;;33.20;27.37;;;;;;;3.51;83.86;100584.72;1663125;85;21059;-70
2022/03/25 02:50:59;;;;;;;31.53;26.90;;;;;;;3.49;83.71;100594.56;1632393;86;21162;-69
2022/03/25 02:53:27;;;;;;;28.63;25.23;;;;;;;3.46;83.58;100591.36;1679234;84;21519;-70
2022/03/25 02:55:56;;;;;;;34.23;28.83;;;;;;;3.45;83.49;100597.62;1639378;86;21082;-70
2022/03/25 02:58:23;;;;;;;32.83;26.93;;;;;;;3.49;83.27;100596.37;1620871;86;21106;-70
2022/03/25 03:00:50;;;;;;;30.13;25.93;;;;;;;3.57;82.88;100608.87;1674334;84;21090;-70
2022/03/25 03:03:19;;;;;;;31.23;26.70;;;;;;;3.61;82.30;100607.63;1673752;84;21051;-70
2022/03/25 03:05:46;;;;;;;37.77;30.73;;;;;;;3.59;81.90;100620.11;1678438;84;21115;-69
2022/03/25 03:08:14;;;;;;;38.20;30.80;;;;;;;3.51;81.85;100619.47;1675055;84;21362;-70
2022/03/25 03:10:54;;;;;;;37.77;30.17;;;;;;;3.41;82.04;100620.77;1684207;84;22212;-70
2022/03/25 03:13:34;;;;;;;42.73;31.47;;;;;;;3.40;82.03;100625.68;1707662;82;21036;-71
2022/03/25 03:16:01;;;;;;;38.07;31.47;;;;;;;3.44;81.78;100623.61;1721390;82;21114;-69
2022/03/25 03:18:28;;;;;;;37.20;31.20;;;;;;;3.47;81.75;100626.81;1717373;82;21374;-70
2022/03/25 03:20:58;;;;;;;37.77;33.27;;;;;;;3.51;81.75;100630.84;1712957;82;21050;-71
2022/03/25 03:23:26;;;;;;;42.93;33.90;;;;;;;3.54;81.73;100645.54;1699114;82;21018;-70
2022/03/25 03:25:53;;;;;;;44.10;33.73;;;;;;;3.50;81.67;100648.09;1669803;83;21049;-71
2022/03/25 03:28:20;;;;;;;38.00;31.57;;;;;;;3.46;81.54;100655.44;1680155;83;21073;-69
2022/03/25 03:30:48;;;;;;;37.03;32.93;;;;;;;3.42;81.50;100653.22;1721782;82;21483;-69
2022/03/25 03:33:16;;;;;;;38.40;32.37;;;;;;;3.44;81.33;100656.55;1698832;83;21686;-70
2022/03/25 03:35:43;;;;;;;33.90;28.37;;;;;;;3.46;81.07;100661.20;1656422;86;21570;-70
2022/03/25 03:38:10;;;;;;;38.00;30.27;;;;;;;3.45;80.10;100659.06;1661312;84;21591;-70
2022/03/25 03:40:38;;;;;;;45.67;31.53;;;;;;;3.37;79.64;100654.95;1671329;84;21057;-71
2022/03/25 03:43:07;;;;;;;33.17;29.03;;;;;;;3.26;79.50;100650.61;1667473;85;21129;-70
2022/03/25 03:45:35;;;;;;;36.17;30.87;;;;;;;3.24;79.16;100659.59;1699271;83;21063;-70
2022/03/25 03:48:02;;;;;;;39.17;29.57;;;;;;;3.21;78.54;100667.29;1671622;85;20992;-71
2022/03/25 03:50:29;;;;;;;34.83;28.87;;;;;;;3.22;78.39;100677.33;1696904;83;21048;-70
2022/03/25 03:52:56;;;;;;;31.20;27.73;;;;;;;3.28;77.45;100681.61;1675444;85;21167;-70
2022/03/25 03:55:23;;;;;;;30.53;25.53;;;;;;;3.29;76.98;100680.63;1670579;84;21265;-71
2022/03/25 03:58:09;;;;;;;31.10;25.77;;;;;;;3.28;76.81;100682.09;1666224;85;21086;-69
2022/03/25 04:00:37;;;;;;;31.60;26.70;;;;;;;3.24;76.46;100690.74;1665314;83;21114;-69
2022/03/25 04:03:06;;;;;;;33.40;25.93;;;;;;;3.22;76.25;100700.58;1646781;86;21141;-70
2022/03/25 04:05:32;;;;;;;32.97;26.93;;;;;;;3.21;76.07;100699.39;1653026;85;21071;-71
2022/03/25 04:07:59;;;;;;;33.40;26.33;;;;;;;3.23;76.30;100701.41;1645498;86;21067;-71
2022/03/25 04:10:26;;;;;;;26.02;23.00;;;;;;;3.30;76.18;100706.02;1657105;86;21067;-70
2022/03/25 04:12:52;;;;;;;;;;;;;;;3.35;75.96;100709.56;1646968;86;21641;-70
2022/03/25 04:15:19;;;;;;;24.23;19.23;;;;;;;3.39;75.86;100712.30;1631832;86;20262;-70
2022/03/25 04:17:47;;;;;;;25.00;22.27;;;;;;;3.42;75.42;100711.20;1634116;86;21057;-70
2022/03/25 04:20:17;;;;;;;25.97;19.93;;;;;;;3.58;75.15;100709.36;1643608;86;21079;-71
2022/03/25 04:22:46;;;;;;;22.40;20.00;;;;;;;3.78;74.05;100703.18;1656376;84;21045;-71
2022/03/25 04:25:15;;;;;;;20.97;18.70;;;;;;;4.00;73.22;100706.58;1697698;83;21065;-70
2022/03/25 04:27:53;;;;;;;21.70;17.97;;;;;;;4.20;72.18;100715.33;1700922;83;21034;-70
2022/03/25 04:30:25;;;;;;;19.67;17.50;;;;;;;4.43;71.04;100722.52;1726404;81;21079;-69
2022/03/25 04:32:52;;;;;;;19.50;16.13;;;;;;;4.70;70.40;100732.35;1702842;83;21304;-70
2022/03/25 04:35:20;;;;;;;19.67;15.73;;;;;;;4.92;68.55;100729.91;1688118;83;21512;-70
2022/03/25 04:37:47;;;;;;;16.73;15.03;;;;;;;5.25;66.58;100738.30;1691324;83;21053;-70
2022/03/25 04:40:17;;;;;;;17.30;15.57;;;;;;;5.48;65.84;100746.69;1687148;84;21682;-70
2022/03/25 04:42:48;;;;;;;16.60;14.80;;;;;;;5.77;64.09;100751.05;1687499;83;21057;-70
2022/03/25 04:45:15;;;;;;;15.63;14.00;;;;;;;6.01;62.98;100757.16;1691479;83;21038;-70
2022/03/25 04:47:43;;;;;;;18.23;15.43;;;;;;;6.26;62.57;100758.23;1689368;83;21097;-71
2022/03/25 04:50:11;;;;;;;16.70;14.80;;;;;;;6.58;60.92;100766.16;1687081;83;21499;-71
2022/03/25 04:52:40;;;;;;;17.00;14.03;;;;;;;6.81;60.21;100762.53;1637707;86;21170;-71
2022/03/25 04:55:11;;;;;;;17.63;13.40;;;;;;;7.01;60.19;100760.55;1668409;84;21178;-71
2022/03/25 04:57:39;;;;;;;16.63;13.27;;;;;;;7.33;58.72;100761.25;1642149;86;21131;-70
2022/03/25 05:00:09;;;;;;;14.77;13.17;;;;;;;7.59;57.59;100771.84;1682453;84;21528;-70
2022/03/25 05:02:36;;;;;;;14.10;12.53;;;;;;;7.79;55.66;100774.25;1715526;83;21037;-71
2022/03/25 05:05:04;;;;;;;13.97;12.13;;;;;;;7.79;55.11;100783.53;1690342;83;21583;-71
2022/03/25 05:07:31;;;;;;;13.53;12.03;;;;;;;7.78;54.58;100781.89;1654155;85;21046;-70
2022/03/25 05:10:01;;;;;;;12.03;10.83;;;;;;;7.75;54.38;100786.17;1686850;82;21529;-71
2022/03/25 05:14:09;;;;;;;12.27;11.07;;;;;;;7.95;53.87;100802.19;1793748;78;23399;-71
2022/03/25 05:16:37;;;;;;;13.27;10.47;;;;;;;8.06;54.17;100803.73;1750441;80;21526;-71
2022/03/25 05:19:03;;;;;;;13.47;12.07;;;;;;;8.32;53.60;100802.30;1758469;80;21020;-72
2022/03/25 05:21:31;;;;;;;10.53;9.53;;;;;;;8.42;53.22;100807.99;1747995;80;21507;-71
2022/03/25 05:23:57;;;;;;;;;;;;;;;8.44;52.82;100813.97;1707228;80;21082;-70
2022/03/25 05:26:25;;;;;;;11.43;10.40;;;;;;;8.22;53.01;100816.22;1693568;83;20142;-71
2022/03/25 05:28:53;;;;;;;13.80;12.53;;;;;;;7.79;54.20;100818.86;1696448;83;21062;-70
2022/03/25 05:31:20;;;;;;;13.97;12.43;;;;;;;7.52;55.02;100822.53;1692232;83;21051;-73
2022/03/25 05:33:46;;;;;;;14.93;13.32;;;;;;;7.47;55.14;100829.30;1667288;83;21598;-71
2022/03/25 05:36:14;;;;;;;16.33;14.57;;;;;;;7.56;54.95;100835.81;1646199;85;21066;-72
2022/03/25 05:38:43;;;;;;;19.23;17.23;;;;;;;7.52;54.92;100833.64;1660865;85;21127;-70
2022/03/25 05:41:10;;;;;;;20.67;17.43;;;;;;;7.54;54.75;100840.45;1649718;85;21012;-72
2022/03/25 05:43:39;;;;;;;18.70;16.87;;;;;;;7.60;54.76;100843.80;1651914;85;21151;-72
2022/03/25 05:46:06;;;;;;;19.83;17.77;;;;;;;7.79;55.08;100847.22;1696264;83;21108;-73
2022/03/25 05:48:34;;;;;;;18.70;16.80;;;;;;;8.18;54.47;100850.73;1690983;83;21063;-72
2022/03/25 05:51:02;;;;;;;17.97;15.57;;;;;;;8.53;53.41;100855.52;1691699;83;21580;-74
2022/03/25 05:53:30;;;;;;;16.40;14.73;;;;;;;8.79;52.25;100856.73;1707568;83;21037;-72
2022/03/25 05:55:59;;;;;;;16.03;14.33;;;;;;;8.92;51.80;100861.06;1670333;84;21041;-72
2022/03/25 05:58:27;;;;;;;15.40;13.50;;;;;;;8.96;51.55;100863.72;1659958;85;21032;-73
2022/03/25 06:00:54;;;;;;;15.07;12.90;;;;;;;8.95;51.53;100865.23;1637607;84;22287;-73
2022/03/25 06:03:22;;;;;;;14.60;13.10;;;;;;;8.99;51.38;100881.70;1631251;86;21541;-74
2022/03/25 06:05:49;;;;;;;13.53;11.90;;;;;;;9.02;51.53;100878.19;1615710;86;21528;-74
2022/03/25 06:08:18;;;;;;;12.07;10.83;;;;;;;9.28;51.61;100879.36;1621841;86;21139;-71
2022/03/25 06:10:46;;;;;;;12.53;11.43;;;;;;;9.58;50.87;100876.20;1625909;86;21068;-73
2022/03/25 06:13:14;;;;;;;13.33;11.93;;;;;;;9.97;49.84;100872.80;1659448;85;21372;-73
2022/03/25 06:15:43;;;;;;;11.03;9.93;;;;;;;10.11;49.11;100881.38;1657296;85;21499;-74
2022/03/25 06:18:11;;;;;;;12.33;11.00;;;;;;;10.24;48.41;100883.50;1659303;85;21088;-73
2022/03/25 06:20:38;;;;;;;10.73;9.73;;;;;;;10.33;47.70;100887.83;1657092;85;21131;-74
2022/03/25 06:23:06;;;;;;;12.80;11.43;;;;;;;10.20;48.06;100880.86;1612310;87;21091;-72
2022/03/25 06:25:35;;;;;;;12.57;11.17;;;;;;;10.22;48.49;100886.84;1608611;86;21070;-72
2022/03/25 06:28:07;;;;;;;10.20;9.23;;;;;;;10.42;47.07;100893.45;1606319;86;21617;-72
2022/03/25 06:30:37;;;;;;;10.73;9.63;;;;;;;10.54;47.19;100893.07;1636373;86;21137;-74
2022/03/25 06:33:07;;;;;;;11.53;10.43;;;;;;;10.53;46.91;100888.25;1638134;84;21082;-74
2022/03/25 06:35:35;;;;;;;11.83;10.63;;;;;;;10.69;46.86;100888.14;1661239;85;21041;-71
2022/03/25 06:38:04;;;;;;;12.40;10.77;;;;;;;11.09;47.13;100888.05;1662385;86;21117;-72
2022/03/25 06:40:32;;;;;;;11.00;10.00;;;;;;;11.62;45.66;100886.28;1655658;85;21139;-72
2022/03/25 06:42:59;;;;;;;9.57;8.67;;;;;;;11.98;44.58;100884.75;1667386;85;21453;-70
2022/03/25 06:45:27;;;;;;;10.50;9.40;;;;;;;12.25;43.06;100884.10;1683609;84;21134;-73
2022/03/25 06:47:55;;;;;;;10.87;9.80;;;;;;;12.40;43.03;100887.28;1667251;86;21141;-71
2022/03/25 06:50:24;;;;;;;12.87;10.13;;;;;;;12.33;43.75;100887.70;1643583;85;21070;-71
2022/03/25 06:52:53;;;;;;;9.57;8.60;;;;;;;11.93;43.44;100892.51;1664404;84;21027;-72
2022/03/25 06:55:21;;;;;;;10.70;9.60;;;;;;;11.27;43.62;100898.42;1684152;84;21062;-70
2022/03/25 06:57:51;;;;;;;10.60;9.60;;;;;;;10.57;44.97;100900.22;1684452;83;21555;-70
2022/03/25 07:00:20;;;;;;;10.13;9.27;;;;;;;10.01;47.03;100899.41;1687598;83;21085;-71
2022/03/25 07:02:49;;;;;;;10.63;9.63;;;;;;;9.52;47.85;100900.31;1695696;83;21030;-70
2022/03/25 07:05:16;;;;;;;10.20;8.50;;;;;;;9.11;48.90;100897.65;1693537;83;21642;-70
2022/03/25 07:07:44;;;;;;;10.00;9.13;;;;;;;8.84;50.63;100918.22;1687777;84;21119;-70
2022/03/25 07:10:15;;;;;;;9.57;8.70;;;;;;;8.68;50.34;100923.01;1689072;83;21114;-74
2022/03/25 07:12:45;;;;;;;10.80;9.73;;;;;;;8.29;51.36;100919.50;1691612;84;21138;-77
2022/03/25 07:15:14;;;;;;;10.57;9.57;;;;;;;8.01;51.79;100925.50;1680999;84;21003;-70
2022/03/25 07:17:43;;;;;;;11.70;10.60;;;;;;;7.85;51.97;100926.20;1649869;85;21092;-71
2022/03/25 07:20:14;;;;;;;11.43;10.23;;;;;;;7.84;52.20;100923.23;1615516;87;21551;-72
2022/03/25 07:22:45;;;;;;;10.80;9.77;;;;;;;7.83;52.41;100922.05;1626791;87;21131;-70
2022/03/25 07:25:15;;;;;;;12.93;10.30;;;;;;;7.78;53.24;100924.69;1636202;87;21087;-70
2022/03/25 07:27:46;;;;;;;11.20;9.90;;;;;;;7.78;53.19;100926.52;1682688;84;21118;-70
2022/03/25 07:30:15;;;;;;;11.10;10.10;;;;;;;7.86;53.11;100926.56;1690359;83;21214;-70
2022/03/25 07:32:45;;;;;;;10.50;9.50;;;;;;;7.96;52.95;100925.95;1685506;83;21452;-71
2022/03/25 07:35:14;;;;;;;9.93;8.80;;;;;;;7.99;52.65;100927.48;1689857;83;21114;-71
2022/03/25 07:37:42;;;;;;;9.37;8.47;;;;;;;7.99;52.02;100931.45;1648231;86;21048;-71
2022/03/25 07:40:13;;;;;;;8.87;7.80;;;;;;;8.01;51.41;100941.42;1690012;84;21384;-71
2022/03/25 07:42:42;;;;;;;9.40;8.50;;;;;;;8.07;51.17;100935.98;1645806;85;21003;-71
2022/03/25 07:45:13;;;;;;;9.20;8.23;;;;;;;8.12;51.21;100929.71;1643330;85;21427;-71
2022/03/25 07:47:44;;;;;;;10.07;8.50;;;;;;;8.14;51.15;100933.04;1623567;87;21110;-70
2022/03/25 07:50:14;;;;;;;11.50;8.37;;;;;;;8.07;51.40;100936.80;1637270;87;21083;-71
2022/03/25 07:52:41;;;;;;;8.63;7.83;;;;;;;8.05;50.80;100932.66;1686996;83;21173;-71
2022/03/25 07:55:09;;;;;;;7.70;7.00;;;;;;;8.12;49.63;100944.31;1691145;84;21183;-71
2022/03/25 07:57:38;;;;;;;8.43;7.37;;;;;;;8.25;47.53;100940.73;1683557;83;21019;-71
2022/03/25 08:00:11;;;;;;;8.43;7.57;;;;;;;8.36;46.93;100937.80;1686423;84;21082;-70
2022/03/25 08:02:44;;;;;;;9.40;8.50;;;;;;;8.39;45.51;100948.09;1686272;83;21046;-70
2022/03/25 08:05:13;;;;;;;10.90;9.80;;;;;;;8.38;45.13;100953.55;1651144;86;21133;-70
2022/03/25 08:07:52;;;;;;;9.87;8.93;;;;;;;8.37;45.18;100955.39;1650206;86;21047;-71
2022/03/25 08:10:27;;;;;;;9.93;8.83;;;;;;;8.36;45.22;100960.38;1691178;84;21096;-72
2022/03/25 08:12:56;;;;;;;10.33;9.23;;;;;;;8.36;44.49;100956.87;1643885;86;21690;-71
2022/03/25 08:15:27;;;;;;;10.27;9.27;;;;;;;8.37;44.41;100951.41;1641745;85;21099;-70
2022/03/25 08:18:00;;;;;;;9.73;8.87;;;;;;;8.44;44.81;100952.97;1635977;85;21047;-72
2022/03/25 08:20:37;;;;;;;10.00;8.30;;;;;;;8.53;44.59;100951.16;1691790;83;22215;-71
2022/03/25 08:23:07;;;;;;;10.63;8.97;;;;;;;8.62;44.36;100955.52;1696173;83;21331;-71
2022/03/25 08:28:20;;;;;;;9.83;8.80;;;;;;;8.70;44.08;100961.36;1688672;84;21110;-72
2022/03/25 08:30:48;;;;;;;11.80;9.67;;;;;;;8.73;43.57;100951.24;1645083;85;21060;-72
2022/03/25 08:33:17;;;;;;;10.30;9.20;;;;;;;8.77;43.22;100951.75;1652414;85;21091;-72
2022/03/25 08:35:44;;;;;;;10.27;9.33;;;;;;;8.82;43.61;100956.60;1649288;85;21039;-72
2022/03/25 08:38:12;;;;;;;9.77;8.80;;;;;;;8.90;43.37;100962.76;1646501;86;21896;-72
2022/03/25 08:40:41;;;;;;;9.07;7.97;;;;;;;8.95;43.18;100953.80;1650024;85;21016;-70
2022/03/25 08:43:09;;;;;;;8.10;7.40;;;;;;;9.10;42.50;100959.33;1644221;85;21214;-69
2022/03/25 08:45:38;;;;;;;9.70;7.97;;;;;;;9.13;42.09;100956.31;1645698;85;21190;-70
2022/03/25 08:48:05;;;;;;;8.13;6.90;;;;;;;9.11;42.02;100960.97;1620757;87;21106;-71
2022/03/25 08:50:34;;;;;;;8.73;7.87;;;;;;;9.11;41.31;100966.29;1652064;85;21158;-69
2022/03/25 08:53:01;;;;;;;7.80;7.10;;;;;;;9.12;40.51;100962.65;1682577;84;21051;-71
2022/03/25 08:55:28;;;;;;;9.23;8.37;;;;;;;9.12;40.64;100970.62;1696298;84;21043;-70
2022/03/25 08:57:57;;;;;;;7.93;7.23;;;;;;;9.04;40.14;100973.76;1687698;83;21099;-72
2022/03/25 09:00:25;;;;;;;9.83;7.57;;;;;;;8.95;40.36;100964.95;1681623;84;21145;-71
2022/03/25 09:02:52;;;;;;;7.90;7.30;;;;;;;8.93;40.83;100964.28;1685231;83;21643;-74
2022/03/25 09:05:20;;;;;;;6.63;6.13;;;;;;;8.98;40.48;100964.60;1691570;84;21071;-70
2022/03/25 09:07:47;;;;;;;6.70;6.13;;;;;;;9.05;39.21;100967.45;1685970;83;21082;-71
2022/03/25 09:10:17;;;;;;;;;;;;;;;9.06;39.57;100961.98;1690243;84;21077;-72
2022/03/25 09:12:45;;;;;;;7.20;5.90;;;;;;;9.12;39.92;100969.30;1686847;84;20169;-71
2022/03/25 09:15:14;;;;;;;6.63;6.03;;;;;;;9.12;39.52;100971.95;1686494;84;21027;-70
2022/03/25 09:17:46;;;;;;;5.30;4.90;;;;;;;9.14;38.69;100969.97;1687276;84;21078;-72
2022/03/25 09:20:15;;;;;;;5.87;5.43;;;;;;;9.12;39.87;100971.14;1693946;84;21543;-72
2022/03/25 09:22:44;;;;;;;5.87;5.43;;;;;;;9.05;40.63;100960.81;1685889;83;21059;-72
2022/03/25 09:25:13;;;;;;;6.83;6.20;;;;;;;9.04;41.33;100972.42;1644660;86;21127;-72
2022/03/25 09:27:41;;;;;;;5.83;5.27;;;;;;;9.07;42.14;100974.27;1657830;85;21122;-71
2022/03/25 09:30:10;;;;;;;6.87;6.27;;;;;;;9.05;41.82;100978.92;1648349;85;21824;-73
2022/03/25 09:32:37;;;;;;;7.13;6.43;;;;;;;9.05;41.72;100982.91;1645391;86;21010;-70
2022/03/25 09:35:08;;;;;;;6.27;5.67;;;;;;;9.10;39.74;100979.78;1639267;86;21563;-72
2022/03/25 09:37:40;;;;;;;5.83;5.33;;;;;;;9.12;39.44;100974.62;1653485;86;21063;-71
2022/03/25 09:40:12;;;;;;;6.30;5.70;;;;;;;9.18;39.88;100973.13;1659329;85;21032;-73
2022/03/25 09:42:40;;;;;;;5.10;4.70;;;;;;;9.27;40.03;100970.00;1695998;83;21103;-71
2022/03/25 09:45:11;;;;;;;5.17;4.73;;;;;;;9.32;40.72;100975.16;1687895;83;21625;-72
2022/03/25 09:47:40;;;;;;;5.17;4.87;;;;;;;9.35;40.81;100972.16;1698171;83;21134;-72
2022/03/25 09:50:12;;;;;;;6.70;6.10;;;;;;;9.37;41.06;100968.00;1648407;85;21123;-71
2022/03/25 09:52:40;;;;;;;5.90;5.43;;;;;;;9.39;40.33;100976.65;1644680;85;21131;-70
2022/03/25 09:55:07;;;;;;;5.97;5.57;;;;;;;9.47;40.04;100970.50;1682885;83;21063;-71
2022/03/25 09:57:36;;;;;;;5.97;5.53;;;;;;;9.51;39.77;100971.35;1686237;83;21047;-72
2022/03/25 10:00:06;;;;;;;8.93;5.50;;;;;;;9.60;39.66;100972.67;1684364;83;21393;-72
2022/03/25 10:02:35;;;;;;;6.33;5.80;;;;;;;9.71;40.05;100972.34;1677209;83;21050;-73
2022/03/25 10:05:05;;;;;;;;;;;;;;;9.73;40.90;100967.16;1700002;84;21057;-74
2022/03/25 10:07:34;;;;;;;9.40;5.67;;;;;;;9.78;40.91;100974.67;1690746;84;20390;-72
2022/03/25 10:10:16;;;;;;;7.17;6.17;;;;;;;9.73;40.57;100976.48;1659544;85;21607;-72
2022/03/25 10:12:51;;;;;;;6.00;5.50;;;;;;;9.70;40.82;100968.00;1690464;83;21143;-74
2022/03/25 10:15:28;;;;;;;6.40;5.90;;;;;;;9.73;41.76;100969.83;1672642;83;21641;-74
2022/03/25 10:18:04;;;;;;;7.33;6.80;;;;;;;9.77;42.36;100962.34;1693354;83;21178;-72
2022/03/25 10:20:36;;;;;;;5.23;4.83;;;;;;;9.79;43.08;100971.50;1696934;84;21534;-72
2022/03/25 10:23:17;;;;;;;6.00;5.50;;;;;;;9.78;42.78;100974.67;1699429;83;21058;-71
2022/03/25 10:25:55;;;;;;;5.83;5.33;;;;;;;9.78;42.37;100973.34;1696886;83;21071;-72
2022/03/25 10:28:44;;;;;;;6.70;6.00;;;;;;;9.79;43.86;100976.31;1699731;83;21010;-74
2022/03/25 10:31:17;;;;;;;6.67;6.07;;;;;;;9.87;43.51;100986.13;1680607;83;21043;-73
2022/03/25 10:33:57;;;;;;;6.30;5.83;;;;;;;9.87;43.11;100980.32;1685851;83;21061;-72
2022/03/25 10:36:25;;;;;;;6.20;5.70;;;;;;;9.86;43.08;100977.82;1684432;83;21233;-71
2022/03/25 10:39:11;;;;;;;6.67;6.10;;;;;;;9.82;43.99;100975.17;1699896;83;21178;-71
2022/03/25 10:41:40;;;;;;;6.83;5.77;;;;;;;9.82;44.08;100983.16;1646656;86;21583;-72
2022/03/25 10:44:10;;;;;;;6.67;6.07;;;;;;;9.80;44.18;100977.99;1654459;85;21558;-70
2022/03/25 10:46:53;;;;;;;5.67;5.27;;;;;;;9.84;44.46;100974.50;1649302;85;21274;-71
2022/03/25 10:49:20;;;;;;;6.00;5.50;;;;;;;9.92;44.36;100975.81;1690753;84;21062;-70
2022/03/25 10:51:58;;;;;;;7.17;5.93;;;;;;;9.91;44.02;100976.83;1692012;84;21043;-71
2022/03/25 10:54:28;;;;;;;5.43;4.93;;;;;;;9.84;43.98;100977.98;1685328;83;21546;-72
2022/03/25 10:56:59;;;;;;;6.93;6.33;;;;;;;9.87;44.10;100976.80;1684786;84;21046;-70
2022/03/25 10:59:32;;;;;;;6.07;5.27;;;;;;;9.89;44.10;100965.52;1682419;84;21150;-71
2022/03/25 11:02:05;;;;;;;5.17;4.77;;;;;;;9.87;43.75;100969.67;1683536;84;21038;-71
2022/03/25 11:04:32;;;;;;;5.50;5.00;;;;;;;9.83;43.98;100965.69;1686220;84;21066;-72
2022/03/25 11:07:02;;;;;;;5.20;4.70;;;;;;;9.88;43.95;100964.66;1667049;84;21098;-71
2022/03/25 11:09:31;;;;;;;5.43;5.03;;;;;;;9.94;43.52;100960.49;1686917;84;21089;-72
2022/03/25 11:12:02;;;;;;;5.77;5.23;;;;;;;9.90;43.73;100964.50;1687924;83;21581;-72
2022/03/25 11:14:31;;;;;;;4.23;4.03;;;;;;;9.87;43.91;100961.69;1689430;84;21670;-70
2022/03/25 11:17:01;;;;;;;4.73;4.33;;;;;;;9.89;43.58;100969.51;1656706;85;21152;-69
2022/03/25 11:19:30;;;;;;;5.17;4.67;;;;;;;9.92;43.06;100977.14;1685486;83;21515;-71
2022/03/25 11:21:58;;;;;;;5.03;4.63;;;;;;;9.88;42.90;100973.16;1681121;84;21098;-71
2022/03/25 11:24:47;;;;;;;5.33;5.00;;;;;;;9.86;43.10;100973.31;1682168;83;21051;-70
2022/03/25 11:27:22;;;;;;;5.95;4.72;;;;;;;9.84;42.82;100966.51;1683811;84;21150;-70
2022/03/25 11:29:54;;;;;;;6.85;4.72;;;;;;;9.84;42.70;100970.00;1694300;84;21591;-70
2022/03/25 11:32:21;;;;;;;5.10;4.63;;;;;;;9.82;42.68;100965.84;1690213;84;22259;-70
2022/03/25 11:35:01;;;;;;;4.87;4.53;;;;;;;9.82;42.75;100973.84;1681562;84;21579;-71
2022/03/25 11:37:31;;;;;;;4.93;4.53;;;;;;;9.83;42.50;100972.34;1653160;85;21562;-71
2022/03/25 11:40:22;;;;;;;5.07;4.40;;;;;;;9.84;42.22;100977.98;1630301;87;21132;-70